Time;durP1;ratioP1;P1;durP2;ratioP2;P2;SDS_P1;SDS_P2;PMS_P1;PMS_P2;Temp;Humidity;BMP_temperature;BMP_pressure;BME280_temperature;BME280_humidity;BME280_pressure;Samples;Min_cycle;Max_cycle;Signal;HPM_P1;HPM_P2
2023/07/18 00:00:12;;;;;;;;;3.67;3.67;;;;;22.52;43.45;101712.00;4958891;28;46150;-70
2023/07/18 00:02:39;;;;;;;;;4.00;3.67;;;;;22.56;43.63;101717.22;4959189;28;45674;-70
2023/07/18 00:05:07;;;;;;;;;4.00;4.00;;;;;22.43;43.83;101718.53;4975179;28;45513;-68
2023/07/18 00:07:34;;;;;;;;;2.00;2.00;;;;;22.38;43.61;101716.03;4960350;28;45292;-69
2023/07/18 00:10:00;;;;;;;;;4.00;3.00;;;;;22.30;43.58;101709.16;4960002;28;45639;-71
2023/07/18 00:12:25;;;;;;;;;3.00;3.00;;;;;22.25;43.64;101716.44;4969789;28;45849;-70
2023/07/18 00:14:52;;;;;;;;;6.67;4.00;;;;;21.85;43.81;101678.47;4968062;28;45329;-70
2023/07/18 00:17:21;;;;;;;;;4.00;2.00;;;;;21.93;44.38;101715.63;4961593;28;45588;-70
2023/07/18 00:19:46;;;;;;;;;5.67;2.00;;;;;21.93;43.96;101715.63;4973348;28;48182;-70
2023/07/18 00:22:12;;;;;;;;;4.67;3.00;;;;;21.82;44.50;101710.59;4962721;28;45488;-68
2023/07/18 00:24:38;;;;;;;;;2.67;2.33;;;;;21.79;44.44;101716.03;4961437;28;45477;-69
2023/07/18 00:27:04;;;;;;;;;2.33;2.00;;;;;21.68;44.80;101720.78;4960184;28;45555;-72
2023/07/18 00:29:29;;;;;;;;;2.00;2.00;;;;;21.62;44.80;101716.50;4960203;28;46153;-73
2023/07/18 00:31:56;;;;;;;;;1.67;1.67;;;;;21.59;44.95;101714.81;4960370;28;45469;-70
2023/07/18 00:34:22;;;;;;;;;3.00;2.67;;;;;21.48;44.81;101692.91;4968943;28;45519;-70
2023/07/18 00:36:48;;;;;;;;;2.00;2.00;;;;;21.49;45.26;101707.09;4960556;28;45437;-72
2023/07/18 00:39:13;;;;;;;;;2.00;2.00;;;;;21.48;45.30;101703.56;4944084;28;47479;-72
2023/07/18 00:41:39;;;;;;;;;5.33;3.00;;;;;21.38;45.19;101683.41;4961071;28;45443;-68
2023/07/18 00:44:05;;;;;;;;;5.67;2.00;;;;;21.44;45.47;101701.88;4955436;28;45418;-69
2023/07/18 00:46:31;;;;;;;;;1.67;1.67;;;;;21.28;45.47;101688.06;4949523;28;45715;-68
2023/07/18 00:48:57;;;;;;;;;5.00;2.00;;;;;21.35;45.18;101688.78;4939367;28;45554;-69
2023/07/18 00:51:25;;;;;;;;;4.67;3.00;;;;;21.30;45.59;101690.72;4944613;28;45481;-68
2023/07/18 00:53:52;;;;;;;;;3.00;2.00;;;;;21.36;45.41;101695.88;4957865;28;45297;-69
2023/07/18 00:56:17;;;;;;;;;4.67;3.00;;;;;21.45;45.10;101703.66;4947401;28;45438;-68
2023/07/18 00:58:44;;;;;;;;;0.67;0.00;;;;;21.49;44.82;101693.78;4959682;28;45464;-68
2023/07/18 01:01:10;;;;;;;;;2.00;2.00;;;;;21.52;44.89;101699.00;4959474;28;45550;-68
2023/07/18 01:03:38;;;;;;;;;4.00;2.00;;;;;21.47;44.78;101684.94;4956849;28;45313;-70
2023/07/18 01:06:05;;;;;;;;;2.00;1.00;;;;;21.35;45.37;101686.13;4959674;28;45495;-68
2023/07/18 01:08:31;;;;;;;;;1.67;1.67;;;;;21.29;45.38;101687.19;4959098;28;45519;-69
2023/07/18 01:10:57;;;;;;;;;2.33;2.00;;;;;21.34;45.40;101687.91;4959777;28;45388;-69
2023/07/18 01:13:23;;;;;;;;;2.33;2.33;;;;;21.20;45.50;101665.25;4961100;28;45479;-68
2023/07/18 01:15:48;;;;;;;;;2.67;2.00;;;;;21.30;45.29;101682.72;4961027;28;45410;-68
2023/07/18 01:18:14;;;;;;;;;6.00;2.00;;;;;21.37;45.28;101682.50;4959652;28;45330;-68
2023/07/18 01:20:44;;;;;;;;;2.00;2.00;;;;;21.18;44.82;101641.31;4964139;28;45456;-68
2023/07/18 01:23:10;;;;;;;;;4.00;2.00;;;;;21.42;45.14;101676.22;4965230;28;45538;-68
2023/07/18 01:25:36;;;;;;;;;4.00;3.00;;;;;21.18;45.34;101662.63;4959312;28;45540;-70
2023/07/18 01:28:03;;;;;;;;;1.00;1.00;;;;;21.25;45.43;101680.19;4959231;28;45702;-68
2023/07/18 01:30:29;;;;;;;;;2.33;2.00;;;;;21.32;45.12;101678.22;4958412;28;45806;-71
2023/07/18 01:32:56;;;;;;;;;2.00;2.00;;;;;21.23;45.07;101666.03;4960738;28;45493;-69
2023/07/18 01:35:26;;;;;;;;;2.00;2.00;;;;;21.31;44.89;101684.47;4960236;28;45412;-70
2023/07/18 01:37:53;;;;;;;;;5.00;2.00;;;;;21.31;44.98;101680.03;4960328;28;45424;-68
2023/07/18 01:40:20;;;;;;;;;1.33;1.33;;;;;21.26;44.71;101670.38;4963508;28;45399;-67
2023/07/18 01:42:47;;;;;;;;;1.00;1.00;;;;;21.22;45.20;101680.28;4960262;28;45452;-69
2023/07/18 01:45:13;;;;;;;;;1.67;1.33;;;;;21.19;44.91;101683.03;4959368;28;45328;-69
2023/07/18 01:47:40;;;;;;;;;1.00;1.00;;;;;21.27;44.61;101680.16;4959845;28;46154;-69
2023/07/18 01:50:07;;;;;;;;;2.33;2.00;;;;;21.34;44.38;101685.25;4961142;28;45524;-69
2023/07/18 01:52:34;;;;;;;;;2.00;2.00;;;;;21.32;44.49;101673.75;4959018;28;45579;-70
2023/07/18 01:55:01;;;;;;;;;1.67;1.67;;;;;21.24;44.51;101656.25;4950487;28;45423;-69
2023/07/18 01:57:41;;;;;;;;;2.00;2.00;;;;;21.13;44.62;101649.41;4953540;28;45663;-71
2023/07/18 02:00:12;;;;;;;;;1.00;1.00;;;;;21.13;44.54;101648.56;4958578;28;45409;-70
2023/07/18 02:02:41;;;;;;;;;1.33;1.33;;;;;21.20;44.42;101657.25;4958510;28;45546;-69
2023/07/18 02:05:07;;;;;;;;;3.00;1.00;;;;;21.17;44.65;101656.41;4959134;28;45258;-69
2023/07/18 02:07:33;;;;;;;;;2.00;1.00;;;;;21.24;44.50;101656.25;4958510;28;45670;-68
2023/07/18 02:10:02;;;;;;;;;1.67;1.00;;;;;21.18;44.54;101628.84;4959004;28;45460;-70
2023/07/18 02:12:28;;;;;;;;;2.00;2.00;;;;;21.27;44.21;101626.88;4958105;28;45513;-68
2023/07/18 02:14:53;;;;;;;;;1.33;1.33;;;;;21.38;43.71;101633.63;4959187;28;45464;-68
2023/07/18 02:17:19;;;;;;;;;3.67;1.00;;;;;21.22;43.85;101626.13;4960403;28;45454;-69
2023/07/18 02:19:45;;;;;;;;;3.00;1.00;;;;;21.26;44.28;101641.09;4963321;28;45314;-69
2023/07/18 02:22:10;;;;;;;;;1.33;1.33;;;;;21.19;44.46;101635.06;4975220;28;45389;-69
2023/07/18 02:24:37;;;;;;;;;0.33;0.33;;;;;21.07;44.32;101625.63;4958332;28;45575;-69
2023/07/18 02:27:04;;;;;;;;;3.33;1.67;;;;;21.16;44.34;101632.47;4959105;28;46333;-70
2023/07/18 02:29:30;;;;;;;;;4.33;2.00;;;;;21.12;44.20;101629.03;4965565;28;45414;-68
2023/07/18 02:31:56;;;;;;;;;4.00;1.67;;;;;21.04;44.36;101617.72;4957263;28;45377;-68
2023/07/18 02:34:22;;;;;;;;;3.33;1.67;;;;;21.03;44.25;101609.78;4958804;28;45445;-68
2023/07/18 02:36:51;;;;;;;;;1.00;1.00;;;;;21.01;44.76;101624.91;4958902;28;45691;-69
2023/07/18 02:39:16;;;;;;;;;2.00;2.00;;;;;21.04;44.18;101625.69;4958609;28;45338;-68
2023/07/18 02:41:42;;;;;;;;;4.00;2.00;;;;;21.12;44.30;101620.19;4958218;28;45302;-69
2023/07/18 02:44:07;;;;;;;;;2.33;1.00;;;;;21.06;44.19;101610.56;4973695;28;45415;-70
2023/07/18 02:46:33;;;;;;;;;1.00;1.00;;;;;20.99;44.62;101605.44;4958686;28;46129;-66
2023/07/18 02:48:58;;;;;;;;;3.33;2.00;;;;;20.92;44.43;101613.59;4970611;28;45454;-70
2023/07/18 02:51:24;;;;;;;;;1.00;1.00;;;;;21.00;44.92;101616.06;4958125;28;45420;-68
2023/07/18 02:53:51;;;;;;;;;1.33;1.00;;;;;20.96;44.49;101607.28;4959245;28;45358;-70
2023/07/18 02:56:17;;;;;;;;;4.00;2.00;;;;;20.96;45.23;101611.72;4939708;28;46420;-73
2023/07/18 02:58:43;;;;;;;;;1.00;1.00;;;;;21.13;44.34;101606.81;4956369;28;45496;-71
2023/07/18 03:01:09;;;;;;;;;2.00;2.00;;;;;21.30;43.91;101608.09;4957810;28;45925;-71
2023/07/18 03:03:38;;;;;;;;;1.00;1.00;;;;;21.21;43.98;101595.06;4958113;28;45648;-69
2023/07/18 03:06:04;;;;;;;;;1.00;1.00;;;;;21.23;44.22;101595.88;4958012;28;45590;-72
2023/07/18 03:08:32;;;;;;;;;2.00;1.33;;;;;21.28;44.02;101591.28;4950593;28;45475;-71
2023/07/18 03:11:01;;;;;;;;;2.00;1.00;;;;;21.25;43.61;101578.94;4952371;28;45441;-73
2023/07/18 03:13:27;;;;;;;;;3.67;2.00;;;;;21.27;43.36;101569.09;4977134;28;45289;-72
2023/07/18 03:15:57;;;;;;;;;2.00;2.00;;;;;21.34;43.59;101580.47;4966110;28;45538;-74
2023/07/18 03:18:29;;;;;;;;;2.00;1.67;;;;;21.24;43.80;101576.34;4968735;28;45434;-74
2023/07/18 03:20:55;;;;;;;;;1.00;1.00;;;;;21.23;43.80;101574.56;4970545;28;45611;-71
2023/07/18 03:23:21;;;;;;;;;0.33;0.33;;;;;21.25;43.78;101568.28;4964827;28;45443;-69
2023/07/18 03:25:49;;;;;;;;;3.67;1.67;;;;;21.37;43.40;101581.22;4961527;28;45598;-70
2023/07/18 03:28:17;;;;;;;;;3.00;1.00;;;;;21.36;43.45;101587.50;4974677;28;45510;-70
2023/07/18 03:30:46;;;;;;;;;2.00;1.00;;;;;21.10;43.75;101548.28;4964909;28;45654;-69
2023/07/18 03:33:12;;;;;;;;;2.00;2.00;;;;;21.14;43.93;101570.38;4962315;28;45408;-69
2023/07/18 03:35:40;;;;;;;;;1.00;1.00;;;;;21.25;43.83;101580.72;4960781;28;45740;-72
2023/07/18 03:38:06;;;;;;;;;2.33;2.00;;;;;21.25;43.52;101564.75;4964534;28;45536;-69
2023/07/18 03:40:31;;;;;;;;;2.00;1.33;;;;;21.43;43.37;101582.00;4948821;28;45556;-69
2023/07/18 03:42:57;;;;;;;;;1.67;1.33;;;;;21.48;43.13;101574.75;4955102;28;45279;-70
2023/07/18 03:45:22;;;;;;;;;2.00;2.00;;;;;21.54;42.87;101575.44;4965007;28;45916;-70
2023/07/18 03:47:48;;;;;;;;;3.33;1.00;;;;;21.41;42.84;101570.53;4971234;28;45672;-69
2023/07/18 03:50:16;;;;;;;;;1.33;1.33;;;;;21.37;43.13;101572.38;4970501;28;45453;-69
2023/07/18 03:52:42;;;;;;;;;1.00;1.00;;;;;21.31;43.03;101568.09;4965089;28;45397;-71
2023/07/18 03:55:12;;;;;;;;;2.00;1.00;;;;;21.24;43.19;101568.34;4950748;28;45635;-69
2023/07/18 03:57:39;;;;;;;;;1.00;1.00;;;;;21.13;43.04;101555.31;4954087;28;45424;-70
2023/07/18 04:00:18;;;;;;;;;1.33;1.00;;;;;21.10;43.19;101558.09;4957956;28;45395;-69
2023/07/18 04:02:48;;;;;;;;;1.00;1.00;;;;;21.11;43.62;101554.50;4958486;28;45452;-69
2023/07/18 04:05:18;;;;;;;;;2.00;2.00;;;;;20.84;43.76;101530.41;4957011;28;46040;-69
2023/07/18 04:07:44;;;;;;;;;2.67;1.00;;;;;21.08;43.08;101560.78;4971644;28;45366;-70
2023/07/18 04:10:11;;;;;;;;;0.00;0.00;;;;;21.02;43.54;101560.94;4955832;28;45370;-68
2023/07/18 04:12:39;;;;;;;;;1.00;1.00;;;;;21.01;43.52;101559.22;4962875;28;45584;-69
2023/07/18 04:15:07;;;;;;;;;1.00;1.00;;;;;20.92;43.32;101557.66;4953781;28;46041;-69
2023/07/18 04:17:32;;;;;;;;;1.33;1.00;;;;;20.86;43.72;101549.88;4958130;28;46212;-70
2023/07/18 04:20:01;;;;;;;;;3.67;1.00;;;;;20.87;43.61;101550.72;4960725;28;45360;-69
2023/07/18 04:22:31;;;;;;;;;1.00;1.00;;;;;20.78;43.68;101535.00;4968297;28;45439;-68
2023/07/18 04:24:57;;;;;;;;;1.33;1.33;;;;;20.83;43.97;101549.06;4962820;28;45378;-70
2023/07/18 04:27:23;;;;;;;;;1.00;1.00;;;;;20.86;43.80;101549.00;4962243;28;45555;-69
2023/07/18 04:29:51;;;;;;;;;3.67;1.00;;;;;20.92;43.44;101541.69;4962968;28;45382;-69
2023/07/18 04:32:17;;;;;;;;;3.33;2.00;;;;;20.89;43.60;101539.13;4961430;28;45456;-74
2023/07/18 04:34:43;;;;;;;;;2.67;1.33;;;;;20.87;43.10;101534.75;4963784;28;46836;-73
2023/07/18 04:37:08;;;;;;;;;3.00;2.67;;;;;20.94;43.54;101536.34;4958270;28;45613;-70
2023/07/18 04:39:34;;;;;;;;;2.33;2.00;;;;;20.96;43.12;101530.03;4961403;28;45582;-69
2023/07/18 04:42:00;;;;;;;;;1.33;1.00;;;;;21.04;43.22;101528.94;4959673;28;45349;-69
2023/07/18 04:44:25;;;;;;;;;1.33;1.33;;;;;21.01;42.90;101511.28;4944807;28;47973;-69
2023/07/18 04:46:52;;;;;;;;;1.00;1.00;;;;;21.05;42.74;101507.59;4958341;28;45507;-70
2023/07/18 04:49:19;;;;;;;;;2.00;2.00;;;;;21.20;43.07;101527.59;4954637;28;45440;-73
2023/07/18 04:51:44;;;;;;;;;0.00;0.00;;;;;21.22;42.84;101504.44;4972321;28;45327;-70
2023/07/18 04:54:10;;;;;;;;;0.33;0.33;;;;;21.27;43.23;101512.28;4967108;28;46902;-70
2023/07/18 04:56:36;;;;;;;;;3.00;2.00;;;;;21.25;42.89;101498.16;4963272;28;45620;-72
2023/07/18 04:59:01;;;;;;;;;1.33;1.33;;;;;21.41;42.57;101509.25;4959406;28;45912;-71
2023/07/18 05:01:36;;;;;;;;;2.00;2.00;;;;;21.45;42.82;101495.78;4954775;28;45551;-72
2023/07/18 05:04:02;;;;;;;;;1.67;1.00;;;;;21.52;42.78;101497.34;4960599;28;46354;-71
2023/07/18 05:06:32;;;;;;;;;2.33;1.00;;;;;21.60;42.21;101489.09;4980082;28;45520;-72
2023/07/18 05:09:01;;;;;;;;;2.00;1.00;;;;;21.66;42.12;101499.53;4957961;28;45550;-70
2023/07/18 05:11:33;;;;;;;;;5.33;5.33;;;;;21.68;41.79;101497.69;4976067;28;45470;-68
2023/07/18 05:13:59;;;;;;;;;8.67;7.33;;;;;21.73;41.56;101489.56;4962562;28;45795;-68
2023/07/18 05:16:25;;;;;;;;;7.33;4.67;;;;;21.58;41.55;101464.28;4965690;28;45524;-68
2023/07/18 05:18:56;;;;;;;;;4.00;4.00;;;;;21.58;41.73;101453.59;4966345;28;45493;-69
2023/07/18 05:21:21;;;;;;;;;3.00;3.00;;;;;21.87;41.35;101476.63;4979981;28;45503;-70
2023/07/18 05:23:50;;;;;;;;;2.00;2.00;;;;;21.94;41.03;101491.50;4957867;28;45398;-69
2023/07/18 05:26:19;;;;;;;;;1.67;1.67;;;;;21.67;40.78;101468.44;4968162;28;45458;-69
2023/07/18 05:28:45;;;;;;;;;2.00;2.00;;;;;21.74;40.91;101489.50;4961261;28;45575;-69
2023/07/18 05:31:10;;;;;;;;;4.00;2.00;;;;;21.81;41.10;101492.84;4958625;28;45588;-69
2023/07/18 05:33:36;;;;;;;;;3.00;3.00;;;;;21.95;41.15;101485.28;4975826;28;46405;-69
2023/07/18 05:36:02;;;;;;;;;3.00;2.00;;;;;21.96;41.16;101491.47;4971286;28;45507;-70
2023/07/18 05:38:27;;;;;;;;;1.00;1.00;;;;;21.92;41.25;101500.47;4961374;28;45480;-69
2023/07/18 05:40:53;;;;;;;;;1.00;1.00;;;;;21.95;41.35;101485.28;4960568;28;45510;-69
2023/07/18 05:43:19;;;;;;;;;4.67;2.00;;;;;22.03;40.79;101485.88;4958630;28;45357;-70
2023/07/18 05:45:45;;;;;;;;;2.00;2.00;;;;;22.26;40.57;101486.94;4974445;28;45297;-69
2023/07/18 05:48:11;;;;;;;;;1.33;1.33;;;;;22.43;40.31;101492.53;4960031;28;45265;-70
2023/07/18 05:50:40;;;;;;;;;1.33;1.33;;;;;22.37;40.21;101460.72;4958451;28;45362;-69
2023/07/18 05:53:06;;;;;;;;;2.67;1.67;;;;;22.67;39.63;101487.22;4943155;28;45424;-70
2023/07/18 05:55:31;;;;;;;;;3.00;2.00;;;;;22.49;39.22;101453.19;4945795;28;45573;-68
2023/07/18 05:57:57;;;;;;;;;2.00;2.00;;;;;22.76;39.44;101492.25;4960393;28;45538;-69
2023/07/18 06:00:26;;;;;;;;;3.33;1.00;;;;;22.60;39.79;101477.72;4962928;28;45494;-68
2023/07/18 06:02:52;;;;;;;;;3.33;2.00;;;;;22.26;39.07;101425.56;4960575;28;46932;-69
2023/07/18 06:05:18;;;;;;;;;3.00;1.67;;;;;22.56;39.98;101476.06;4967647;28;45551;-68
2023/07/18 06:07:43;;;;;;;;;4.33;3.00;;;;;22.56;40.56;101492.94;4956822;28;45528;-69
2023/07/18 06:10:12;;;;;;;;;2.33;2.33;;;;;22.47;40.43;101479.06;4961216;28;45318;-69
2023/07/18 06:12:38;;;;;;;;;0.00;0.00;;;;;22.52;39.88;101493.13;4964282;28;46451;-69
2023/07/18 06:15:04;;;;;;;;;3.00;1.67;;;;;22.56;39.98;101492.94;4961851;28;45472;-69
2023/07/18 06:17:35;;;;;;;;;3.33;2.33;;;;;22.79;40.17;101492.13;4973212;28;45405;-69
2023/07/18 06:20:02;;;;;;;;;2.67;2.67;;;;;23.05;39.52;101491.16;4963470;28;45619;-70
2023/07/18 06:22:27;;;;;;;;;3.33;3.00;;;;;23.25;38.98;101487.75;4976274;28;45452;-71
2023/07/18 06:24:53;;;;;;;;;5.00;4.00;;;;;23.32;38.19;101484.81;4969982;28;45561;-69
2023/07/18 06:27:19;;;;;;;;;5.33;2.33;;;;;23.29;37.37;101486.69;4974480;28;45417;-70
2023/07/18 06:29:46;;;;;;;;;1.33;1.33;;;;;23.20;36.84;101479.00;4965035;28;45388;-70
2023/07/18 06:32:12;;;;;;;;;3.33;1.67;;;;;23.19;37.17;101496.00;4970682;28;46170;-70
2023/07/18 06:34:40;;;;;;;;;4.00;2.50;;;;;23.09;37.86;101486.59;4965153;28;45523;-68
2023/07/18 06:37:08;;;;;;;;;1.00;1.00;;;;;23.41;37.80;101505.84;4960737;28;45499;-70
2023/07/18 06:39:35;;;;;;;;;3.33;2.00;;;;;23.63;37.40;101503.19;4950906;28;45482;-69
2023/07/18 06:42:01;;;;;;;;;5.00;3.00;;;;;23.73;36.85;101501.00;4959151;28;46301;-69
2023/07/18 06:44:26;;;;;;;;;2.33;2.00;;;;;23.70;36.53;101493.97;4958583;28;45652;-69
2023/07/18 06:46:53;;;;;;;;;2.00;2.00;;;;;23.68;37.21;101507.44;4962004;28;45423;-69
2023/07/18 06:49:20;;;;;;;;;4.00;2.33;;;;;23.75;37.20;101532.13;4964717;28;45523;-72
2023/07/18 06:51:46;;;;;;;;;2.00;2.00;;;;;23.62;36.55;101522.84;4955499;28;45465;-69
2023/07/18 06:54:11;;;;;;;;;3.00;2.00;;;;;23.50;37.21;101527.72;4940143;28;45454;-73
2023/07/18 06:56:39;;;;;;;;;2.67;2.00;;;;;23.45;37.43;101531.53;4947542;28;45515;-71
2023/07/18 06:59:04;;;;;;;;;2.67;2.00;;;;;23.37;37.59;101529.16;4948469;28;45416;-71
2023/07/18 07:01:32;;;;;;;;;2.00;2.00;;;;;23.14;38.02;101522.03;4961944;28;46949;-71
2023/07/18 07:03:58;;;;;;;;;2.00;2.00;;;;;23.10;37.77;101522.19;4954088;28;45318;-69
2023/07/18 07:06:24;;;;;;;;;2.00;2.00;;;;;22.87;37.99;101491.81;4963145;28;45408;-68
2023/07/18 07:08:51;;;;;;;;;2.00;2.00;;;;;22.99;38.55;101517.25;4964546;28;45522;-69
2023/07/18 07:11:16;;;;;;;;;2.67;2.67;;;;;22.86;38.34;101511.47;4955067;28;45422;-69
2023/07/18 07:13:42;;;;;;;;;3.67;2.33;;;;;22.98;37.90;101528.84;4961032;28;45487;-69
2023/07/18 07:16:07;;;;;;;;;5.33;3.33;;;;;22.95;38.84;101515.59;4960502;28;45348;-71
2023/07/18 07:18:34;;;;;;;;;3.67;3.00;;;;;22.79;38.61;101507.28;4959903;28;45471;-69
2023/07/18 07:21:00;;;;;;;;;2.67;2.67;;;;;22.79;38.44;101489.44;4962013;28;46263;-70
2023/07/18 07:23:26;;;;;;;;;3.00;2.00;;;;;22.71;38.69;101512.91;4971033;28;45349;-70
2023/07/18 07:25:51;;;;;;;;;3.00;2.00;;;;;22.70;38.50;101519.16;4971045;28;45615;-70
2023/07/18 07:28:17;;;;;;;;;3.00;2.67;;;;;22.31;38.78;101486.75;4965919;28;46056;-71
2023/07/18 07:30:46;;;;;;;;;1.67;1.67;;;;;22.72;38.76;101544.00;4974253;28;45383;-73
2023/07/18 07:33:12;;;;;;;;;2.33;2.00;;;;;22.99;38.40;101533.28;4973715;28;45467;-72
2023/07/18 07:35:37;;;;;;;;;5.00;2.67;;;;;23.17;37.94;101521.91;4970679;28;46204;-71
2023/07/18 07:38:03;;;;;;;;;2.00;1.00;;;;;23.31;38.01;101529.38;4960069;28;45496;-70
2023/07/18 07:40:29;;;;;;;;;2.67;2.67;;;;;23.34;37.91;101505.22;4961378;28;45454;-72
2023/07/18 07:42:56;;;;;;;;;3.33;3.00;;;;;23.43;37.79;101487.94;4962008;28;46650;-71
2023/07/18 07:45:22;;;;;;;;;2.67;2.33;;;;;23.47;38.21;101465.50;4950793;28;45563;-71
2023/07/18 07:47:48;;;;;;;;;3.67;3.00;;;;;23.49;37.70;101427.09;4953791;28;45329;-70
2023/07/18 07:50:14;;;;;;;;;3.67;3.00;;;;;23.42;37.86;101440.75;4947209;28;45503;-69
2023/07/18 07:52:40;;;;;;;;;5.67;3.00;;;;;23.32;38.02;101386.78;4950624;28;45424;-69
2023/07/18 07:55:07;;;;;;;;;5.33;3.67;;;;;23.33;38.11;101347.59;4960804;28;45479;-69
2023/07/18 07:57:32;;;;;;;;;5.00;3.00;;;;;23.28;38.09;101347.78;4963706;28;45354;-70
2023/07/18 07:59:58;;;;;;;;;4.00;4.00;;;;;23.20;38.05;101318.69;4960781;28;46123;-70
2023/07/18 08:02:24;;;;;;;;;3.33;2.33;;;;;23.22;38.22;101289.22;4970655;28;45636;-69
2023/07/18 08:04:49;;;;;;;;;4.00;4.00;;;;;23.43;37.94;101301.69;4958330;28;45294;-70
2023/07/18 08:07:16;;;;;;;;;4.00;4.00;;;;;23.50;38.18;101319.19;4965162;28;45477;-70
2023/07/18 08:09:42;;;;;;;;;3.33;2.67;;;;;23.47;38.29;101319.34;4961944;28;45626;-69
2023/07/18 08:12:11;;;;;;;;;3.33;3.00;;;;;23.55;38.46;101307.44;4958813;28;45523;-72
2023/07/18 08:14:37;;;;;;;;;3.00;3.00;;;;;23.52;38.45;101303.09;4957133;28;45544;-70
2023/07/18 08:17:04;;;;;;;;;4.67;4.00;;;;;23.43;38.71;101306.16;4964548;28;45526;-70
2023/07/18 08:19:36;;;;;;;;;4.33;2.67;;;;;23.48;38.74;101285.44;4954970;28;45843;-70
2023/07/18 08:22:02;;;;;;;;;3.00;3.00;;;;;23.52;38.96;101268.34;4968972;28;45444;-70
2023/07/18 08:24:29;;;;;;;;;3.00;3.00;;;;;23.51;39.05;101266.59;4959275;28;45560;-70
2023/07/18 08:26:57;;;;;;;;;3.00;3.00;;;;;23.59;39.07;101269.81;4959398;28;45306;-69
2023/07/18 08:29:27;;;;;;;;;5.67;3.00;;;;;23.54;39.04;101271.81;4975102;28;45371;-70
2023/07/18 08:31:54;;;;;;;;;2.67;2.00;;;;;23.47;39.26;101294.41;4978853;28;45662;-69
2023/07/18 08:34:20;;;;;;;;;3.00;3.00;;;;;23.50;39.58;101291.59;4973288;28;45359;-69
2023/07/18 08:36:47;;;;;;;;;3.67;3.67;;;;;23.82;39.36;101324.13;4978785;28;45364;-71
2023/07/18 08:39:13;;;;;;;;;3.67;3.67;;;;;23.79;39.00;101324.25;4966003;28;45354;-70
2023/07/18 08:41:43;;;;;;;;;3.33;3.33;;;;;23.90;38.98;101328.19;4957154;28;45514;-71
2023/07/18 08:44:13;;;;;;;;;5.33;5.33;;;;;24.05;38.68;101355.22;4961040;28;45432;-70
2023/07/18 08:46:46;;;;;;;;;7.33;4.00;;;;;24.04;38.86;101365.03;4967302;28;45640;-70
2023/07/18 08:49:15;;;;;;;;;4.67;3.00;;;;;24.16;38.43;101366.31;4960560;28;45554;-70
2023/07/18 08:51:41;;;;;;;;;4.00;4.00;;;;;24.18;38.83;101368.91;4961000;28;45458;-69
2023/07/18 08:54:12;;;;;;;;;5.00;4.00;;;;;24.21;39.11;101380.34;4958085;28;45560;-69
2023/07/18 08:56:43;;;;;;;;;6.00;4.00;;;;;24.22;38.23;101354.44;4948299;28;45860;-71
2023/07/18 08:59:09;;;;;;;;;4.33;4.00;;;;;24.43;38.65;101382.91;4959584;28;45478;-70
2023/07/18 09:01:35;;;;;;;;;6.00;3.33;;;;;24.42;38.29;101350.88;4959464;28;45447;-70
2023/07/18 09:04:24;;;;;;;;;4.00;4.00;;;;;24.51;37.56;101359.38;4974754;28;45215;-71
2023/07/18 09:06:56;;;;;;;;;5.00;4.00;;;;;24.58;37.62;101364.44;4960371;28;45461;-70
2023/07/18 09:09:23;;;;;;;;;3.00;3.00;;;;;24.71;37.69;101361.13;4958434;28;46631;-71
2023/07/18 09:11:57;;;;;;;;;3.00;3.00;;;;;24.80;37.12;101356.28;4948994;28;45772;-71
2023/07/18 09:14:24;;;;;;;;;6.33;5.00;;;;;24.48;37.34;101313.97;4960457;28;45559;-71
2023/07/18 09:16:52;;;;;;;;;6.00;4.00;;;;;24.79;37.55;101355.38;4949762;28;45552;-72
2023/07/18 09:19:18;;;;;;;;;5.25;4.00;;;;;24.84;37.68;101358.72;4960143;28;45581;-74
2023/07/18 09:21:43;;;;;;;;;4.00;3.00;;;;;24.87;36.57;101344.31;4959425;28;45409;-71
2023/07/18 09:24:12;;;;;;;;;4.75;4.25;;;;;25.06;36.81;101342.47;4969860;28;45384;-71
2023/07/18 09:26:38;;;;;;;;;6.25;3.50;;;;;25.20;36.38;101351.66;4962329;28;45591;-71
2023/07/18 09:29:10;;;;;;;;;5.50;3.50;;;;;25.18;35.89;101323.13;4959626;28;45511;-71
2023/07/18 09:31:37;;;;;;;;;3.00;3.00;;;;;25.43;35.87;101346.03;4973767;28;45426;-70
2023/07/18 09:34:11;;;;;;;;;3.25;3.00;;;;;25.45;36.01;101330.72;4960832;28;45230;-70
2023/07/18 09:36:37;;;;;;;;;4.00;4.00;;;;;25.63;35.98;101339.66;4958856;28;45440;-72
2023/07/18 09:39:05;;;;;;;;;7.25;5.00;;;;;25.74;35.85;101339.94;4958861;28;45408;-71
2023/07/18 09:41:31;;;;;;;;;6.25;5.00;;;;;25.65;35.40;101310.06;4958640;28;45709;-75
2023/07/18 09:44:00;;;;;;;;;4.25;4.00;;;;;25.72;35.51;101328.47;4958208;28;45369;-71
2023/07/18 09:46:27;;;;;;;;;4.75;4.75;;;;;25.67;35.74;101306.34;4958644;28;45502;-70
2023/07/18 09:48:54;;;;;;;;;5.75;4.25;;;;;25.87;35.36;101326.81;4957965;28;45515;-70
2023/07/18 09:51:22;;;;;;;;;5.00;5.00;;;;;25.93;34.94;101321.09;4958221;28;46215;-70
2023/07/18 09:53:48;;;;;;;;;4.25;4.00;;;;;25.82;34.94;101296.63;4915988;28;1370026;-69
2023/07/18 09:56:15;;;;;;;;;3.00;2.75;;;;;25.94;35.00;101311.25;4945380;28;45462;-69
2023/07/18 09:58:43;;;;;;;;;3.75;3.75;;;;;25.98;36.15;101310.13;4958755;28;46163;-70
2023/07/18 10:01:12;;;;;;;;;6.50;4.25;;;;;26.14;34.85;101318.22;4959824;28;45459;-70
2023/07/18 10:03:49;;;;;;;;;5.50;5.00;;;;;26.19;34.79;101316.16;4963672;28;45484;-72
2023/07/18 10:06:25;;;;;;;;;6.00;3.75;;;;;26.26;35.43;101316.69;4974545;28;45528;-72
2023/07/18 10:08:54;;;;;;;;;5.00;5.00;;;;;26.35;34.79;101313.50;4975739;28;46932;-73
2023/07/18 10:11:20;;;;;;;;;4.00;3.00;;;;;26.30;34.40;101303.03;4973531;28;45369;-69
2023/07/18 10:13:54;;;;;;;;;4.00;4.00;;;;;26.40;34.13;101301.53;4963769;28;45564;-72
2023/07/18 10:16:20;;;;;;;;;3.00;3.00;;;;;26.45;34.31;101299.47;4959551;28;45520;-69
2023/07/18 10:18:50;;;;;;;;;6.75;6.25;;;;;26.48;34.11;101295.78;4958992;28;46650;-70
2023/07/18 10:21:31;;;;;;;;;8.50;7.50;;;;;26.47;33.85;101280.59;4958323;28;45495;-75
2023/07/18 10:23:57;;;;;;;;;8.75;8.25;;;;;26.52;33.62;101281.19;4959847;28;45522;-74
2023/07/18 10:26:33;;;;;;;;;4.75;4.75;;;;;26.59;33.66;101282.63;4958502;28;45579;-75
2023/07/18 10:29:03;;;;;;;;;5.25;4.75;;;;;26.75;33.23;101279.06;4960148;28;46576;-74
2023/07/18 10:31:36;;;;;;;;;3.75;3.75;;;;;26.80;33.09;101272.47;4966109;28;45484;-74
2023/07/18 10:34:05;;;;;;;;;3.00;3.00;;;;;26.86;32.87;101268.53;4956102;28;45558;-72
2023/07/18 10:36:30;;;;;;;;;2.00;2.00;;;;;26.95;33.92;101269.84;4959970;28;45441;-71
2023/07/18 10:38:56;;;;;;;;;5.00;3.50;;;;;26.89;33.34;101248.72;4959263;28;46041;-72
2023/07/18 10:41:26;;;;;;;;;4.75;4.75;;;;;26.95;33.02;101241.13;4957293;28;45464;-72
2023/07/18 10:43:51;;;;;;;;;4.25;4.00;;;;;27.12;32.91;101258.94;4958661;28;45450;-70
2023/07/18 10:46:19;;;;;;;;;7.75;5.25;;;;;26.85;32.83;101207.69;4958829;28;45472;-71
2023/07/18 10:48:51;;;;;;;;;7.75;6.00;;;;;27.10;33.01;101241.19;4958727;28;45567;-70
2023/07/18 10:51:17;;;;;;;;;5.20;4.40;;;;;27.11;32.76;101218.75;4965575;28;45491;-69
2023/07/18 10:53:44;;;;;;;;;4.50;4.00;;;;;27.21;32.93;101239.63;4958709;28;45531;-72
2023/07/18 10:56:22;;;;;;;;;5.25;3.75;;;;;27.33;32.83;101242.53;4945392;28;45661;-70
2023/07/18 10:58:48;;;;;;;;;5.00;5.00;;;;;27.33;32.25;101231.78;4950718;28;46272;-72
2023/07/18 11:01:15;;;;;;;;;4.00;4.00;;;;;27.32;32.74;101233.63;4957100;28;45507;-71
2023/07/18 11:03:45;;;;;;;;;4.00;4.00;;;;;27.42;32.86;101232.09;4974171;28;45466;-72
2023/07/18 11:06:14;;;;;;;;;4.75;4.75;;;;;27.45;31.94;101218.47;4961624;28;45395;-73
2023/07/18 11:08:45;;;;;;;;;4.00;3.50;;;;;27.55;32.28;101215.19;4967642;28;46488;-71
2023/07/18 11:11:10;;;;;;;;;4.50;4.50;;;;;27.77;32.07;101231.75;4975925;28;45601;-72
2023/07/18 11:13:43;;;;;;;;;5.25;5.25;;;;;27.74;31.84;101228.38;4976344;28;45504;-71
2023/07/18 11:16:15;;;;;;;;;4.25;4.00;;;;;27.63;32.07;101232.59;4970072;28;45519;-72
2023/07/18 11:18:45;;;;;;;;;6.00;4.00;;;;;27.51;32.10;101225.28;4976301;28;45326;-70
2023/07/18 11:21:12;;;;;;;;;5.75;5.00;;;;;27.56;31.60;101206.19;4968750;28;45431;-70
2023/07/18 11:23:43;;;;;;;;;4.00;4.00;;;;;27.76;31.55;101210.28;4961875;28;45225;-71